KCDN/CDN METAR and TAF weather

Enter ICAO airport designator
Station Type Date Time Source
KCDN METAR 2020/01/22 15:35 UTC NOAA

KCDN 221535Z AUTO 01010G18KT 10SM CLR 03/M11 A3041 RMK AO2


Station Type Date Time Source
KCDN Decoded METAR 2020/01/22 15:35 UTC NOAA

Station name not available
Jan 22, 2020 - 10:35 AM EST / 2020.01.22 1535 UTC
Wind: from the N (010 degrees) at 12 MPH (10 KT) gusting to 21 MPH (18 KT):0
Visibility: 10 mile(s):0
Sky conditions: clear
Temperature: 37 F (3 C)
Dew Point: 12 F (-11 C)
Relative Humidity: 34%
Pressure (altimeter): 30.41 in. Hg (1029 hPa)
ob: KCDN 221535Z AUTO 01010G18KT 10SM CLR 03/M11 A3041 RMK AO2
cycle: 15

Station Type Date Time Source
KCDN TAF UTC NOAA

Error!

Example: see airport list